createdAt,value
2018-12-29T00:00:32.664Z,25.43
2018-12-29T00:03:01.066Z,25.20
2018-12-29T00:05:31.353Z,24.33
2018-12-29T00:08:07.423Z,23.73
2018-12-29T00:10:35.822Z,23.90
2018-12-29T00:13:04.206Z,24.43
2018-12-29T00:15:32.610Z,23.90
2018-12-29T00:18:01.001Z,24.73
2018-12-29T00:20:31.351Z,25.83
2018-12-29T00:22:59.980Z,23.63
2018-12-29T00:25:28.381Z,24.93
2018-12-29T00:27:56.769Z,23.67
2018-12-29T00:30:31.788Z,23.73
2018-12-29T00:33:00.172Z,23.27
2018-12-29T00:35:28.636Z,24.17
2018-12-29T00:37:57.052Z,24.07
2018-12-29T00:40:32.161Z,24.57
2018-12-29T00:43:03.344Z,23.40
2018-12-29T00:45:31.804Z,22.83
2018-12-29T00:48:00.274Z,22.93
2018-12-29T00:50:31.394Z,25.00
2018-12-29T00:53:02.761Z,24.57
2018-12-29T00:55:31.163Z,24.10
2018-12-29T00:57:59.789Z,23.60
2018-12-29T01:00:31.137Z,24.50
2018-12-29T01:02:59.775Z,23.30
2018-12-29T01:05:28.177Z,24.63
2018-12-29T01:07:56.585Z,25.03
2018-12-29T01:10:24.982Z,24.17
2018-12-29T01:12:56.521Z,23.70
2018-12-29T01:15:27.861Z,20.97
2018-12-29T01:17:56.261Z,21.73
2018-12-29T01:20:27.365Z,21.77
2018-12-29T01:22:58.805Z,21.80
2018-12-29T01:25:27.204Z,22.07
2018-12-29T01:27:57.136Z,22.00
2018-12-29T01:30:28.497Z,21.93
2018-12-29T01:33:00.182Z,22.73
2018-12-29T01:35:31.332Z,22.63
2018-12-29T01:37:59.733Z,21.63
2018-12-29T01:40:30.898Z,22.60
2018-12-29T01:42:59.565Z,22.80
2018-12-29T01:45:31.142Z,22.07
2018-12-29T01:48:02.720Z,23.33
2018-12-29T01:50:31.173Z,22.70
2018-12-29T01:53:02.305Z,22.67
2018-12-29T01:55:30.692Z,22.30
2018-12-29T01:57:59.093Z,23.00
2018-12-29T02:00:31.553Z,22.83
2018-12-29T02:02:57.625Z,21.80
2018-12-29T02:05:26.264Z,21.20
2018-12-29T02:07:54.652Z,21.90
2018-12-29T02:10:24.558Z,22.83
2018-12-29T02:12:54.245Z,21.60
2018-12-29T02:15:24.831Z,21.47
2018-12-29T02:17:54.989Z,22.00
2018-12-29T02:20:27.859Z,22.73
2018-12-29T02:22:58.133Z,22.93
2018-12-29T02:25:31.086Z,22.90
2018-12-29T02:27:59.489Z,22.30
2018-12-29T02:30:30.559Z,23.23
2018-12-29T02:33:03.153Z,21.77
2018-12-29T02:35:34.373Z,21.33
2018-12-29T02:38:02.770Z,23.17
2018-12-29T02:40:31.170Z,23.47
2018-12-29T02:42:59.802Z,22.53
2018-12-29T02:45:33.300Z,23.10
2018-12-29T02:48:01.063Z,22.37
2018-12-29T02:50:31.370Z,22.43
2018-12-29T02:53:01.402Z,23.73
2018-12-29T02:55:30.057Z,24.43
2018-12-29T02:58:04.897Z,23.60
2018-12-29T03:00:33.542Z,22.13
2018-12-29T03:03:01.929Z,22.97
2018-12-29T03:05:33.310Z,21.73
2018-12-29T03:08:02.013Z,23.03
2018-12-29T03:10:30.470Z,23.37
2018-12-29T03:13:01.941Z,21.37
2018-12-29T03:15:32.258Z,22.20
2018-12-29T03:18:08.773Z,22.40
2018-12-29T03:20:40.674Z,23.47
2018-12-29T03:23:10.350Z,24.23
2018-12-29T03:25:38.781Z,25.17
2018-12-29T03:28:07.164Z,23.40
2018-12-29T03:30:38.346Z,24.23
2018-12-29T03:33:06.737Z,24.30
2018-12-29T03:35:44.068Z,25.63
2018-12-29T03:38:18.277Z,24.00
2018-12-29T03:40:46.663Z,23.93
2018-12-29T03:43:17.369Z,22.23
2018-12-29T03:45:49.214Z,24.40
2018-12-29T03:48:15.952Z,24.43
2018-12-29T03:50:44.336Z,25.17
2018-12-29T03:53:12.909Z,23.73
2018-12-29T03:55:42.944Z,23.43
2018-12-29T03:58:11.339Z,24.83
2018-12-29T04:00:41.384Z,22.47
2018-12-29T04:03:09.775Z,22.57
2018-12-29T04:05:41.064Z,24.07
2018-12-29T04:08:12.449Z,25.67
2018-12-29T04:10:40.853Z,25.40
2018-12-29T04:13:09.251Z,23.50
2018-12-29T04:15:40.913Z,23.20
2018-12-29T04:18:10.950Z,22.77
2018-12-29T04:20:45.693Z,24.40
2018-12-29T04:23:19.658Z,22.73
2018-12-29T04:25:48.070Z,23.43
2018-12-29T04:28:22.261Z,22.07
2018-12-29T04:30:50.661Z,23.20
2018-12-29T04:33:19.052Z,22.97
2018-12-29T04:35:47.436Z,21.27
2018-12-29T04:38:16.013Z,20.03
2018-12-29T04:40:44.401Z,20.53
2018-12-29T04:43:17.361Z,22.23
2018-12-29T04:45:49.202Z,20.50
2018-12-29T04:48:23.317Z,22.57
2018-12-29T04:51:11.052Z,21.43
2018-12-29T04:53:42.181Z,20.77
2018-12-29T04:56:12.205Z,23.20
2018-12-29T04:58:43.525Z,20.80
2018-12-29T05:01:11.938Z,22.43
2018-12-29T05:03:42.191Z,23.27
2018-12-29T05:06:10.593Z,22.53
2018-12-29T05:08:39.001Z,21.37
2018-12-29T05:11:11.946Z,20.70
2018-12-29T05:13:42.158Z,20.63
2018-12-29T05:16:12.943Z,20.73
2018-12-29T05:18:43.620Z,20.53
2018-12-29T05:21:14.997Z,20.87
2018-12-29T05:23:46.392Z,19.97
2018-12-29T05:26:14.790Z,20.80
2018-12-29T05:28:43.189Z,21.50
2018-12-29T05:31:13.226Z,20.60
2018-12-29T05:33:41.637Z,21.53
2018-12-29T05:36:11.906Z,22.00
2018-12-29T05:38:40.540Z,22.07
2018-12-29T05:41:10.586Z,22.50
2018-12-29T05:43:40.509Z,23.07
2018-12-29T05:46:10.545Z,22.33
2018-12-29T05:48:38.944Z,21.20
2018-12-29T05:51:07.353Z,22.83
2018-12-29T05:53:35.980Z,22.87
2018-12-29T05:56:04.364Z,22.03
2018-12-29T05:58:32.773Z,22.70
2018-12-29T06:01:02.509Z,23.30
2018-12-29T06:03:31.408Z,24.17
2018-12-29T06:06:10.881Z,24.13
2018-12-29T06:08:45.221Z,23.37
2018-12-29T06:11:13.621Z,24.07
2018-12-29T06:13:42.250Z,24.30
2018-12-29T06:16:10.874Z,23.37
2018-12-29T06:18:40.837Z,22.33
2018-12-29T06:21:09.457Z,22.63
2018-12-29T06:23:39.486Z,23.67
2018-12-29T06:26:07.901Z,22.80
2018-12-29T06:28:37.939Z,22.03
2018-12-29T06:31:18.169Z,22.80
2018-12-29T06:33:47.013Z,23.30
2018-12-29T06:36:18.060Z,22.37
2018-12-29T06:38:46.453Z,23.73
2018-12-29T06:41:14.922Z,23.83
2018-12-29T06:43:43.317Z,23.70
2018-12-29T06:46:13.357Z,24.20
2018-12-29T06:48:44.209Z,23.80
2018-12-29T06:51:15.481Z,23.00
2018-12-29T06:53:43.874Z,23.07
2018-12-29T06:56:13.914Z,24.93
2018-12-29T06:58:42.349Z,24.30
2018-12-29T07:01:16.507Z,23.03
2018-12-29T07:03:46.748Z,23.37
2018-12-29T07:06:15.668Z,23.73
2018-12-29T07:08:44.072Z,24.63
2018-12-29T07:11:12.468Z,23.80
2018-12-29T07:13:41.093Z,24.23
2018-12-29T07:16:09.489Z,25.73
2018-12-29T07:18:37.882Z,24.10
2018-12-29T07:21:06.280Z,23.80
2018-12-29T07:23:37.653Z,24.87
2018-12-29T07:26:06.052Z,23.47
2018-12-29T07:28:34.450Z,23.40
2018-12-29T07:31:03.095Z,24.77
2018-12-29T07:33:34.961Z,23.17
2018-12-29T07:36:03.617Z,24.53
2018-12-29T07:38:32.053Z,23.40
2018-12-29T07:41:00.604Z,24.67
2018-12-29T07:43:29.004Z,22.93
2018-12-29T07:45:57.409Z,23.30
2018-12-29T07:48:26.052Z,25.43
2018-12-29T07:50:54.447Z,24.63
2018-12-29T07:53:22.853Z,24.57
2018-12-29T07:55:51.251Z,24.60
2018-12-29T07:58:19.633Z,25.47
2018-12-29T08:00:48.283Z,25.13
2018-12-29T08:03:18.107Z,23.80
2018-12-29T08:05:46.477Z,24.73
2018-12-29T08:08:16.405Z,25.03
2018-12-29T08:10:46.445Z,24.87
2018-12-29T08:13:16.477Z,24.23
2018-12-29T08:15:45.038Z,26.03
2018-12-29T08:18:22.180Z,25.80
2018-12-29T08:20:50.589Z,24.90
2018-12-29T08:23:24.565Z,25.33
2018-12-29T08:25:55.985Z,25.30
2018-12-29T08:28:27.549Z,25.37
2018-12-29T08:30:55.953Z,24.10
2018-12-29T08:33:27.082Z,25.07
2018-12-29T08:35:55.447Z,26.17
2018-12-29T08:38:23.843Z,26.27
2018-12-29T08:40:52.241Z,24.37
2018-12-29T08:43:22.271Z,26.03
2018-12-29T08:45:53.706Z,26.00
2018-12-29T08:48:23.780Z,26.73
2018-12-29T08:50:54.821Z,24.93
2018-12-29T08:53:25.870Z,23.43
2018-12-29T08:55:57.485Z,25.37
2018-12-29T08:58:28.563Z,25.07
2018-12-29T09:00:56.969Z,23.30
2018-12-29T09:03:25.387Z,24.10
2018-12-29T09:05:53.877Z,23.57
2018-12-29T09:08:22.281Z,24.37
2018-12-29T09:10:50.669Z,24.90
2018-12-29T09:13:19.053Z,24.57
2018-12-29T09:15:47.861Z,25.47
2018-12-29T09:18:22.449Z,23.87
2018-12-29T09:20:50.843Z,22.83
2018-12-29T09:23:19.225Z,24.27
2018-12-29T09:25:49.215Z,24.80
2018-12-29T09:28:17.983Z,24.47
2018-12-29T09:30:55.397Z,24.37
2018-12-29T09:33:23.794Z,25.30
2018-12-29T09:35:56.319Z,23.07
2018-12-29T09:38:27.200Z,22.03
2018-12-29T09:40:55.844Z,22.67
2018-12-29T09:43:24.241Z,22.67
2018-12-29T09:45:52.713Z,21.83
2018-12-29T09:48:21.615Z,23.77
2018-12-29T09:50:50.001Z,23.70
2018-12-29T09:53:21.582Z,23.97
2018-12-29T09:55:52.669Z,22.90
2018-12-29T09:58:21.053Z,23.53
2018-12-29T10:00:50.710Z,22.80
2018-12-29T10:03:19.071Z,23.00
2018-12-29T10:05:47.469Z,22.27
2018-12-29T10:08:16.022Z,22.90
2018-12-29T10:10:44.425Z,22.37
2018-12-29T10:13:14.450Z,22.67
2018-12-29T10:15:43.107Z,21.57
2018-12-29T10:18:11.488Z,24.30
2018-12-29T10:20:39.888Z,22.83
2018-12-29T10:23:08.533Z,23.10
2018-12-29T10:25:36.917Z,22.13
2018-12-29T10:28:06.858Z,21.67
2018-12-29T10:30:35.241Z,22.20
2018-12-29T10:33:05.283Z,22.20
2018-12-29T10:35:33.914Z,23.33
2018-12-29T10:38:05.228Z,22.67
2018-12-29T10:40:38.297Z,22.80
2018-12-29T10:43:12.394Z,22.70
2018-12-29T10:45:40.785Z,22.37
2018-12-29T10:48:12.293Z,22.43
2018-12-29T10:50:43.169Z,22.77
2018-12-29T10:53:11.550Z,21.20
2018-12-29T10:55:39.953Z,21.67
2018-12-29T10:58:08.340Z,22.50
2018-12-29T11:00:42.635Z,22.00
2018-12-29T11:03:11.018Z,23.03
2018-12-29T11:05:39.408Z,20.77
2018-12-29T11:08:07.793Z,21.50
2018-12-29T11:10:36.186Z,23.47
2018-12-29T11:13:07.716Z,22.93
2018-12-29T11:15:36.126Z,21.23
2018-12-29T11:18:09.037Z,22.33
2018-12-29T11:20:37.393Z,21.63
2018-12-29T11:23:06.656Z,22.67
2018-12-29T11:25:36.778Z,19.90
2018-12-29T11:28:05.162Z,21.83
2018-12-29T11:30:35.209Z,21.83
2018-12-29T11:33:03.597Z,20.50
2018-12-29T11:35:38.209Z,20.63
2018-12-29T11:38:09.658Z,19.30
2018-12-29T11:40:38.059Z,21.60
2018-12-29T11:43:06.441Z,19.83
2018-12-29T11:45:34.856Z,21.07
2018-12-29T11:48:03.236Z,21.07
2018-12-29T11:50:31.617Z,19.20
2018-12-29T11:53:01.690Z,19.80
2018-12-29T11:55:31.717Z,22.23
2018-12-29T11:58:02.421Z,21.07
2018-12-29T12:00:30.827Z,20.70
2018-12-29T12:05:46.764Z,21.50
2018-12-29T12:08:15.152Z,22.30
2018-12-29T12:10:43.533Z,21.73
2018-12-29T12:13:11.952Z,21.60
2018-12-29T12:15:40.393Z,22.00
2018-12-29T12:18:08.792Z,21.80
2018-12-29T12:20:37.253Z,21.60
2018-12-29T12:23:05.976Z,22.57
2018-12-29T12:25:34.366Z,22.33
2018-12-29T12:28:06.710Z,22.57
2018-12-29T12:30:36.140Z,21.57
2018-12-29T12:33:07.949Z,20.07
2018-12-29T12:35:42.238Z,20.10
2018-12-29T12:38:11.062Z,20.00
2018-12-29T12:40:39.498Z,18.97
2018-12-29T12:43:07.973Z,20.33
2018-12-29T12:45:37.283Z,20.20
2018-12-29T12:48:11.584Z,21.07
2018-12-29T12:50:39.985Z,19.83
2018-12-29T12:53:08.392Z,20.23
2018-12-29T12:55:39.944Z,19.57
2018-12-29T12:58:11.358Z,19.70
2018-12-29T13:00:40.633Z,19.40
2018-12-29T13:03:09.666Z,21.27
2018-12-29T13:05:40.721Z,19.57
2018-12-29T13:08:09.117Z,19.17
2018-12-29T13:10:37.587Z,19.83
2018-12-29T13:13:10.613Z,19.33
2018-12-29T13:15:39.010Z,20.50
2018-12-29T13:18:13.347Z,20.07
2018-12-29T13:20:41.727Z,18.90
2018-12-29T13:23:12.802Z,21.63
2018-12-29T13:25:42.820Z,20.40
2018-12-29T13:28:11.465Z,20.83
2018-12-29T13:30:40.709Z,21.33
2018-12-29T13:33:09.129Z,21.43
2018-12-29T13:35:39.199Z,20.73
2018-12-29T13:38:10.697Z,19.80
2018-12-29T13:40:39.080Z,19.83
2018-12-29T13:43:07.473Z,19.63
2018-12-29T13:45:41.697Z,21.33
2018-12-29T13:48:20.560Z,20.00
2018-12-29T13:50:49.210Z,20.40
2018-12-29T13:53:17.580Z,20.63
2018-12-29T13:55:49.017Z,19.93
2018-12-29T13:58:20.109Z,20.50
2018-12-29T14:00:48.504Z,21.27
2018-12-29T14:03:17.917Z,20.50
2018-12-29T14:05:50.969Z,21.30
2018-12-29T14:08:19.369Z,21.00
2018-12-29T14:10:49.393Z,20.40
2018-12-29T14:13:19.560Z,21.03
2018-12-29T14:15:50.605Z,21.00
2018-12-29T14:18:28.109Z,19.47
2018-12-29T14:20:54.719Z,19.80
2018-12-29T14:23:25.649Z,19.47
2018-12-29T14:25:56.906Z,20.23
2018-12-29T14:28:25.544Z,19.40
2018-12-29T14:30:53.931Z,20.00
2018-12-29T14:33:22.481Z,20.10
2018-12-29T14:35:53.958Z,20.13
2018-12-29T14:38:22.341Z,19.70
2018-12-29T14:40:58.005Z,20.70
2018-12-29T14:43:32.673Z,21.03
2018-12-29T14:46:01.062Z,20.37
2018-12-29T14:48:38.029Z,20.40
2018-12-29T14:51:09.076Z,19.23
2018-12-29T14:53:38.731Z,20.37
2018-12-29T14:56:07.179Z,19.07
2018-12-29T14:58:38.497Z,21.83
2018-12-29T15:01:06.893Z,20.30
2018-12-29T15:03:36.940Z,21.10
2018-12-29T15:06:07.865Z,20.80
2018-12-29T15:08:38.042Z,19.73
2018-12-29T15:11:08.308Z,20.30
2018-12-29T15:13:43.137Z,21.47
2018-12-29T15:16:11.529Z,21.03
2018-12-29T15:18:43.521Z,20.90
2018-12-29T15:21:10.269Z,20.13
2018-12-29T15:23:38.657Z,20.53
2018-12-29T15:26:10.501Z,20.13
2018-12-29T15:28:38.881Z,19.87
2018-12-29T15:31:11.797Z,19.53
2018-12-29T15:33:49.521Z,20.10
2018-12-29T15:36:20.899Z,20.17
2018-12-29T15:38:51.891Z,19.60
2018-12-29T15:41:25.178Z,21.33
2018-12-29T15:43:54.557Z,20.07
2018-12-29T15:46:22.937Z,18.67
2018-12-29T15:48:54.065Z,18.00
2018-12-29T15:51:23.337Z,19.17
2018-12-29T15:53:51.738Z,18.00
2018-12-29T15:56:22.633Z,18.67
2018-12-29T15:58:51.034Z,17.70
2018-12-29T16:01:19.707Z,18.30
2018-12-29T16:03:48.097Z,18.50
2018-12-29T16:06:18.366Z,18.53
2018-12-29T16:08:48.692Z,17.60
2018-12-29T16:11:26.127Z,17.67
2018-12-29T16:13:58.881Z,17.70
2018-12-29T16:16:27.761Z,16.87
2018-12-29T16:18:59.117Z,17.57
2018-12-29T16:21:26.539Z,17.07
2018-12-29T16:23:54.986Z,17.33
2018-12-29T16:26:28.845Z,17.93
2018-12-29T16:28:58.038Z,18.23
2018-12-29T16:31:29.221Z,18.90
2018-12-29T16:33:57.605Z,17.53
2018-12-29T16:36:29.754Z,17.97
2018-12-29T16:39:01.115Z,18.83
2018-12-29T16:41:31.139Z,17.53
2018-12-29T16:44:03.299Z,18.87
2018-12-29T16:46:32.633Z,18.93
2018-12-29T16:49:06.788Z,18.20
2018-12-29T16:51:34.201Z,32.37
2018-12-29T16:54:05.278Z,19.77
2018-12-29T16:56:34.549Z,19.47
2018-12-29T16:59:02.933Z,18.30
2018-12-29T17:01:31.325Z,18.60
2018-12-29T17:04:00.917Z,18.73
2018-12-29T17:06:29.845Z,21.10
2018-12-29T17:08:58.230Z,18.37
2018-12-29T17:11:26.622Z,18.60
2018-12-29T17:13:55.012Z,18.33
2018-12-29T17:16:23.401Z,18.63
2018-12-29T17:18:55.281Z,18.47
2018-12-29T17:21:23.664Z,18.70
2018-12-29T17:23:54.946Z,18.67
2018-12-29T17:26:23.338Z,18.37
2018-12-29T17:28:51.729Z,18.43
2018-12-29T17:31:25.662Z,18.27
2018-12-29T17:33:53.717Z,18.40
2018-12-29T17:36:23.649Z,17.90
2018-12-29T17:38:54.749Z,17.70
2018-12-29T17:41:23.145Z,17.27
2018-12-29T17:43:55.102Z,16.87
2018-12-29T17:46:23.485Z,15.47
2018-12-29T17:48:51.876Z,17.57
2018-12-29T17:51:23.157Z,17.20
2018-12-29T17:53:52.593Z,17.33
2018-12-29T17:56:22.013Z,16.07
2018-12-29T17:58:50.393Z,16.07
2018-12-29T18:01:18.789Z,17.27
2018-12-29T18:03:47.182Z,17.07
2018-12-29T18:06:15.833Z,17.73
2018-12-29T18:08:47.267Z,17.37
2018-12-29T18:11:21.163Z,18.07
2018-12-29T18:13:49.805Z,20.23
2018-12-29T18:16:18.882Z,19.20
2018-12-29T18:18:49.146Z,17.73
2018-12-29T18:21:17.809Z,18.70
2018-12-29T18:23:49.073Z,17.10
2018-12-29T18:26:18.410Z,16.97
2018-12-29T18:28:46.884Z,18.40
2018-12-29T18:31:15.277Z,17.17
2018-12-29T18:33:43.733Z,17.10
2018-12-29T18:36:14.937Z,19.47
2018-12-29T18:38:44.118Z,19.00
2018-12-29T18:41:12.576Z,18.53
2018-12-29T18:43:41.997Z,19.33
2018-12-29T18:46:10.345Z,18.23
2018-12-29T18:48:38.737Z,18.83
2018-12-29T18:51:08.165Z,18.60
2018-12-29T18:53:39.303Z,18.93
2018-12-29T18:56:07.801Z,18.70
2018-12-29T18:58:36.446Z,18.57
2018-12-29T19:01:05.070Z,18.67
2018-12-29T19:03:33.761Z,18.53
2018-12-29T19:06:03.032Z,20.87
2018-12-29T19:08:33.057Z,18.53
2018-12-29T19:11:01.442Z,19.90
2018-12-29T19:13:35.025Z,20.53
2018-12-29T19:16:23.556Z,18.13
2018-12-29T19:18:55.957Z,19.87
2018-12-29T19:21:26.525Z,18.73
2018-12-29T19:23:58.033Z,18.70
2018-12-29T19:26:27.324Z,18.87
2018-12-29T19:28:56.594Z,18.37
2018-12-29T19:31:24.982Z,17.80
2018-12-29T19:33:53.456Z,17.87
2018-12-29T19:36:21.840Z,18.37
2018-12-29T19:38:52.046Z,17.83
2018-12-29T19:41:20.729Z,17.53
2018-12-29T19:43:50.103Z,17.90
2018-12-29T19:46:18.765Z,17.47
2018-12-29T19:48:47.158Z,17.27
2018-12-29T19:51:17.277Z,18.00
2018-12-29T19:53:46.015Z,17.63
2018-12-29T19:56:18.030Z,17.90
2018-12-29T19:58:46.162Z,16.97
2018-12-29T20:01:14.561Z,17.23
2018-12-29T20:03:44.021Z,16.37
2018-12-29T20:06:18.973Z,15.27
2018-12-29T20:08:47.361Z,16.33
2018-12-29T20:11:15.750Z,16.47
2018-12-29T20:13:48.515Z,15.27
2018-12-29T20:16:17.141Z,15.60
2018-12-29T20:18:46.319Z,15.07
2018-12-29T20:21:16.346Z,14.57
2018-12-29T20:23:44.745Z,14.53
2018-12-29T20:26:15.853Z,14.20
2018-12-29T20:28:57.585Z,14.53
2018-12-29T20:31:26.194Z,14.07
2018-12-29T20:33:54.584Z,13.77
2018-12-29T20:36:24.406Z,15.50
2018-12-29T20:38:54.689Z,14.70
2018-12-29T20:41:23.090Z,15.53
2018-12-29T20:43:52.293Z,13.67
2018-12-29T20:46:20.704Z,12.70
2018-12-29T20:48:49.097Z,12.87
2018-12-29T20:51:17.656Z,12.83
2018-12-29T20:53:46.429Z,11.97
2018-12-29T20:56:14.816Z,11.97
2018-12-29T20:58:43.230Z,11.13
2018-12-29T21:01:17.462Z,11.67
2018-12-29T21:03:41.977Z,11.27
2018-12-29T21:06:11.610Z,10.70
2018-12-29T21:08:40.043Z,10.67
2018-12-29T21:11:08.428Z,8.97
2018-12-29T21:13:36.821Z,9.67
2018-12-29T21:16:05.304Z,7.77
2018-12-29T21:18:33.686Z,6.83
2018-12-29T21:21:02.857Z,6.40
2018-12-29T21:23:31.238Z,6.20
2018-12-29T21:25:59.633Z,6.13
2018-12-29T21:28:28.015Z,5.77
2018-12-29T21:30:56.402Z,5.70
2018-12-29T21:33:24.791Z,5.60
2018-12-29T21:35:54.003Z,5.80
2018-12-29T21:38:41.769Z,4.60
2018-12-29T21:41:10.149Z,4.53
2018-12-29T21:43:38.560Z,4.30
2018-12-29T21:46:07.724Z,4.37
2018-12-29T21:48:38.054Z,4.53
2018-12-29T21:51:06.205Z,4.43
2018-12-29T21:53:34.850Z,3.53
2018-12-29T21:56:03.234Z,3.40
2018-12-29T21:58:33.257Z,3.47
2018-12-29T22:01:01.645Z,4.13
2018-12-29T22:03:30.098Z,4.00
2018-12-29T22:05:58.479Z,3.80
2018-12-29T22:08:26.875Z,3.77
2018-12-29T22:10:55.333Z,3.90
2018-12-29T22:13:24.389Z,3.47
2018-12-29T22:15:52.789Z,3.97
2018-12-29T22:18:21.169Z,3.33
2018-12-29T22:20:49.807Z,3.80
2018-12-29T22:23:19.399Z,3.73
2018-12-29T22:25:48.588Z,3.90
2018-12-29T22:28:20.212Z,3.63
2018-12-29T22:30:48.588Z,4.03
2018-12-29T22:33:18.191Z,4.40
2018-12-29T22:35:46.548Z,4.40
2018-12-29T22:38:15.399Z,4.03
2018-12-29T22:40:43.785Z,4.10
2018-12-29T22:43:12.188Z,4.30
2018-12-29T22:45:40.649Z,4.53
2018-12-29T22:48:09.092Z,4.37
2018-12-29T22:50:41.120Z,4.17
2018-12-29T22:53:07.845Z,4.20
2018-12-29T22:55:36.234Z,4.27
2018-12-29T22:58:08.578Z,4.20
2018-12-29T23:00:39.553Z,4.50
2018-12-29T23:03:07.947Z,4.80
2018-12-29T23:05:36.332Z,4.83
2018-12-29T23:08:04.724Z,5.60
2018-12-29T23:10:34.506Z,5.40
2018-12-29T23:13:05.020Z,6.07
2018-12-29T23:15:36.153Z,5.60
2018-12-29T23:18:04.542Z,5.80
2018-12-29T23:20:36.439Z,6.00
2018-12-29T23:23:04.884Z,6.03
2018-12-29T23:25:33.540Z,6.10
2018-12-29T23:28:07.485Z,6.27
2018-12-29T23:30:38.846Z,6.70
2018-12-29T23:33:11.552Z,7.13
2018-12-29T23:35:40.005Z,7.20
2018-12-29T23:38:09.168Z,6.77
2018-12-29T23:40:39.525Z,6.67
2018-12-29T23:43:13.661Z,6.90
2018-12-29T23:45:42.739Z,7.23
2018-12-29T23:48:11.121Z,6.87
2018-12-29T23:50:42.533Z,6.63
2018-12-29T23:53:11.958Z,7.80
2018-12-29T23:55:41.104Z,7.17
2018-12-29T23:58:10.277Z,7.23
